Time;durP1;ratioP1;P1;durP2;ratioP2;P2;SDS_P1;SDS_P2;PMS_P1;PMS_P2;Temp;Humidity;BMP_temperature;BMP_pressure;BME280_temperature;BME280_humidity;BME280_pressure;Samples;Min_cycle;Max_cycle;Signal;HPM_P1;HPM_P2
2023/10/19 00:01:26;;;;;;;34.40;26.73;;;7.80;99.90;;;;;;4977930;28;20045;-70
2023/10/19 00:03:55;;;;;;;34.63;26.83;;;7.80;99.90;;;;;;4996572;28;20046;-70
2023/10/19 00:06:25;;;;;;;34.05;28.33;;;7.80;99.90;;;;;;5011595;28;20097;-70
2023/10/19 00:08:52;;;;;;;35.33;26.88;;;7.80;99.90;;;;;;5012309;28;20049;-70
2023/10/19 00:11:22;;;;;;;33.20;26.92;;;7.80;99.90;;;;;;4992463;28;20034;-70
2023/10/19 00:13:50;;;;;;;32.55;26.35;;;7.80;99.90;;;;;;4996219;28;20034;-67
2023/10/19 00:16:17;;;;;;;34.63;25.95;;;7.80;99.90;;;;;;4994216;28;20042;-67
2023/10/19 00:18:49;;;;;;;38.47;29.65;;;7.80;99.90;;;;;;4995626;28;20084;-68
2023/10/19 00:21:24;;;;;;;38.85;29.42;;;7.80;99.90;;;;;;5034009;28;20049;-70
2023/10/19 00:23:56;;;;;;;32.47;27.05;;;7.80;99.90;;;;;;5012078;28;20471;-69
2023/10/19 00:26:25;;;;;;;45.10;30.45;;;7.80;99.90;;;;;;5012037;28;20049;-68
2023/10/19 00:28:55;;;;;;;36.25;28.13;;;7.80;99.90;;;;;;5010878;28;20065;-70
2023/10/19 00:31:22;;;;;;;34.33;27.50;;;7.80;99.90;;;;;;5008932;28;20510;-70
2023/10/19 00:33:51;;;;;;;36.10;29.30;;;7.80;99.90;;;;;;4976950;28;20054;-70
2023/10/19 00:36:20;;;;;;;36.50;29.17;;;7.80;99.90;;;;;;4995120;28;20056;-69
2023/10/19 00:41:21;;;;;;;34.20;28.30;;;7.80;99.90;;;;;;5028146;28;20129;-69
2023/10/19 00:43:49;;;;;;;46.90;34.40;;;7.80;99.90;;;;;;5015902;28;20042;-69
2023/10/19 00:48:58;;;;;;;45.42;33.88;;;7.80;99.90;;;;;;5016579;28;20044;-69
2023/10/19 00:54:38;;;;;;;45.58;33.05;;;7.80;99.90;;;;;;5010561;28;20135;-69
2023/10/19 00:57:11;;;;;;;46.03;34.97;;;7.80;99.90;;;;;;5010467;28;20048;-70
2023/10/19 00:59:43;;;;;;;;;;;7.80;99.90;;;;;;5021140;28;20038;-69
2023/10/19 01:02:19;;;;;;;42.45;32.85;;;7.70;99.90;;;;;;5011435;28;19979;-69
2023/10/19 01:04:50;;;;;;;53.15;36.95;;;7.70;99.90;;;;;;5019913;28;20065;-69
2023/10/19 01:09:56;;;;;;;51.60;37.92;;;7.70;99.90;;;;;;5008401;28;20128;-69
2023/10/19 01:15:07;;;;;;;;;;;7.70;99.90;;;;;;5037875;28;20049;-70
2023/10/19 01:17:38;;;;;;;56.42;39.60;;;7.70;99.90;;;;;;5036228;28;19917;-69
2023/10/19 01:20:13;;;;;;;50.17;36.05;;;7.70;99.90;;;;;;5010355;28;20111;-69
2023/10/19 01:22:47;;;;;;;53.70;37.78;;;7.70;99.90;;;;;;5043293;28;20061;-70
2023/10/19 01:25:19;;;;;;;61.97;41.50;;;7.70;99.90;;;;;;5009879;28;20498;-70
2023/10/19 01:27:45;;;;;;;62.75;41.20;;;7.70;99.90;;;;;;4995130;28;20491;-70
2023/10/19 01:30:13;;;;;;;60.28;42.17;;;7.70;99.90;;;;;;4993528;28;20049;-70
2023/10/19 01:32:38;;;;;;;70.00;44.15;;;7.70;99.90;;;;;;4994397;28;20076;-71
2023/10/19 01:35:04;;;;;;;51.17;38.63;;;7.70;99.90;;;;;;5010730;28;20082;-71
2023/10/19 01:37:30;;;;;;;72.03;45.53;;;7.70;99.90;;;;;;4992506;28;20038;-70
2023/10/19 01:39:56;;;;;;;63.65;42.78;;;7.70;99.90;;;;;;5010054;28;20056;-71
2023/10/19 01:42:22;;;;;;;67.72;43.97;;;7.60;99.90;;;;;;4994324;28;20192;-71
2023/10/19 01:44:48;;;;;;;61.33;42.92;;;7.70;99.90;;;;;;5009551;28;20117;-70
2023/10/19 01:47:15;;;;;;;83.63;49.38;;;7.60;99.90;;;;;;5009321;28;20049;-71
2023/10/19 01:49:45;;;;;;;70.15;46.70;;;7.70;99.90;;;;;;5036665;28;20042;-71
2023/10/19 01:52:10;;;;;;;78.57;48.88;;;7.60;99.90;;;;;;5008723;28;20117;-72
2023/10/19 01:54:37;;;;;;;85.88;49.92;;;7.60;99.90;;;;;;4993686;28;20184;-71
2023/10/19 01:57:05;;;;;;;83.60;49.05;;;7.60;99.90;;;;;;5008083;28;20069;-71
2023/10/19 01:59:31;;;;;;;89.88;51.13;;;7.60;99.90;;;;;;4994801;28;20091;-71
2023/10/19 02:01:57;;;;;;;85.63;50.13;;;7.60;99.90;;;;;;5011889;28;20120;-71
2023/10/19 02:04:25;;;;;;;72.28;47.70;;;7.60;99.90;;;;;;5011434;28;20503;-72
2023/10/19 02:06:53;;;;;;;120.07;56.10;;;7.60;99.90;;;;;;5010180;28;20123;-71
2023/10/19 02:09:22;;;;;;;72.07;46.90;;;7.70;99.90;;;;;;4978715;28;20057;-71
2023/10/19 02:11:52;;;;;;;72.40;46.72;;;7.70;99.90;;;;;;4994746;28;20038;-71
2023/10/19 02:14:19;;;;;;;74.18;47.97;;;7.70;99.90;;;;;;5038401;28;20104;-71
2023/10/19 02:16:53;;;;;;;78.22;48.75;;;7.70;99.90;;;;;;5006657;28;20038;-72
2023/10/19 02:19:20;;;;;;;96.43;52.55;;;7.70;99.90;;;;;;4993415;28;20041;-72
2023/10/19 02:21:51;;;;;;;86.97;51.67;;;7.70;99.90;;;;;;5010820;28;20065;-72
2023/10/19 02:24:17;;;;;;;102.70;55.50;;;7.70;99.90;;;;;;4994442;28;20050;-72
2023/10/19 02:26:44;;;;;;;113.15;58.60;;;7.70;99.90;;;;;;4993261;28;20030;-72
2023/10/19 02:29:10;;;;;;;117.97;57.80;;;7.70;99.90;;;;;;5011778;28;20085;-72
2023/10/19 02:31:40;;;;;;;83.78;49.78;;;7.70;99.90;;;;;;4995033;28;20085;-71
2023/10/19 02:34:12;;;;;;;96.68;52.13;;;7.70;99.90;;;;;;5010097;28;20104;-72
2023/10/19 02:36:39;;;;;;;82.30;48.08;;;7.70;99.90;;;;;;4992514;28;20064;-72
2023/10/19 02:39:07;;;;;;;76.78;46.45;;;7.70;99.90;;;;;;4991530;28;20035;-72
2023/10/19 02:41:41;;;;;;;70.80;45.40;;;7.70;99.90;;;;;;5008973;28;20046;-71
2023/10/19 02:46:48;;;;;;;73.30;46.72;;;7.80;99.90;;;;;;5038569;28;20050;-72
2023/10/19 02:49:18;;;;;;;79.88;47.15;;;7.80;99.90;;;;;;5024559;28;20048;-71
2023/10/19 02:51:44;;;;;;;77.63;47.40;;;7.80;99.90;;;;;;5010027;28;20045;-72
2023/10/19 02:54:21;;;;;;;92.88;49.30;;;7.80;99.90;;;;;;5009101;28;20042;-71
2023/10/19 02:56:49;;;;;;;67.38;44.03;;;7.80;99.90;;;;;;5008744;28;20049;-71
2023/10/19 02:59:16;;;;;;;62.95;43.33;;;7.80;99.90;;;;;;5012079;28;20042;-72
2023/10/19 03:01:45;;;;;;;71.55;45.13;;;7.80;99.90;;;;;;5009348;28;20557;-72
2023/10/19 03:04:15;;;;;;;76.38;46.22;;;7.80;99.90;;;;;;4996766;28;20157;-72
2023/10/19 03:06:41;;;;;;;68.07;43.80;;;7.80;99.90;;;;;;5011804;28;20033;-72
2023/10/19 03:09:29;;;;;;;67.07;42.53;;;7.80;99.90;;;;;;5023033;28;20124;-72
2023/10/19 03:11:59;;;;;;;71.22;44.55;;;7.80;99.90;;;;;;5008475;28;20060;-72
2023/10/19 03:14:26;;;;;;;71.10;43.38;;;7.80;99.90;;;;;;5011126;28;20037;-72
2023/10/19 03:16:55;;;;;;;80.82;45.67;;;7.80;99.90;;;;;;4995003;28;20034;-72
2023/10/19 03:19:21;;;;;;;69.90;42.63;;;7.80;99.90;;;;;;5005871;28;20494;-71
2023/10/19 03:21:49;;;;;;;57.50;40.10;;;7.90;99.90;;;;;;4994743;28;20034;-71
2023/10/19 03:27:21;;;;;;;68.85;43.78;;;7.90;99.90;;;;;;5010116;28;20449;-71
2023/10/19 03:29:53;;;;;;;63.83;40.53;;;7.90;99.90;;;;;;5012611;28;20125;-71
2023/10/19 03:32:26;;;;;;;62.03;41.17;;;7.90;99.90;;;;;;5013122;28;20040;-71
2023/10/19 03:34:55;;;;;;;63.10;40.90;;;7.90;99.90;;;;;;4994012;28;20065;-69
2023/10/19 03:37:30;;;;;;;91.72;48.22;;;7.90;99.90;;;;;;5011871;28;20076;-70
2023/10/19 03:39:56;;;;;;;66.82;42.25;;;7.90;99.90;;;;;;5028082;28;20041;-71
2023/10/19 03:42:26;;;;;;;63.53;41.30;;;7.90;99.90;;;;;;5022101;28;20508;-71
2023/10/19 03:44:56;;;;;;;69.75;43.92;;;7.90;99.90;;;;;;5012338;28;20549;-71
2023/10/19 03:47:26;;;;;;;71.80;43.72;;;7.90;99.90;;;;;;5032595;28;20065;-71
2023/10/19 03:49:52;;;;;;;81.75;46.75;;;7.90;99.90;;;;;;5012033;28;20388;-72
2023/10/19 03:54:43;;;;;;;103.22;51.35;;;7.90;99.90;;;;;;5037579;28;20045;-71
2023/10/19 03:57:29;;;;;;;68.05;43.92;;;7.90;99.90;;;;;;5010398;28;20044;-71
2023/10/19 03:59:59;;;;;;;127.22;55.63;;;8.00;99.90;;;;;;5012189;28;20130;-73
2023/10/19 04:02:29;;;;;;;76.47;44.95;;;8.00;99.90;;;;;;5003859;28;20486;-73
2023/10/19 04:04:57;;;;;;;67.57;41.78;;;8.00;99.90;;;;;;5011666;28;20494;-74
2023/10/19 04:07:25;;;;;;;71.75;42.67;;;8.00;99.90;;;;;;4995702;28;20040;-75
2023/10/19 04:10:29;;;;;;;89.90;45.15;;;8.00;99.90;;;;;;5038652;28;20124;-74
2023/10/19 04:12:42;;;;;;;86.07;47.40;;;8.00;99.90;;;;;;5029264;28;20165;-75
2023/10/19 04:15:17;;;;;;;108.85;50.85;;;8.00;99.90;;;;;;4994691;28;20739;-76
2023/10/19 04:17:48;;;;;;;72.25;41.72;;;8.00;99.90;;;;;;4997460;28;20034;-75
2023/10/19 04:22:50;;;;;;;57.72;38.47;;;8.00;99.90;;;;;;5040724;28;20461;-75
2023/10/19 04:25:20;;;;;;;96.57;48.73;;;8.00;99.90;;;;;;4993356;28;20061;-74
2023/10/19 04:27:49;;;;;;;87.30;45.53;;;8.00;99.90;;;;;;4995929;28;20038;-75
2023/10/19 04:30:16;;;;;;;64.75;38.72;;;8.10;99.90;;;;;;4995438;28;20062;-75
2023/10/19 04:32:43;;;;;;;76.25;42.83;;;8.10;99.90;;;;;;4992892;28;20030;-75
2023/10/19 04:35:09;;;;;;;85.80;44.50;;;8.10;99.90;;;;;;5021823;28;20519;-75
2023/10/19 04:37:36;;;;;;;74.82;40.88;;;8.10;99.90;;;;;;5019256;28;20038;-75
2023/10/19 04:40:02;;;;;;;71.97;38.55;;;8.10;99.90;;;;;;4995568;28;20517;-75
2023/10/19 04:42:28;;;;;;;63.80;37.50;;;8.10;99.90;;;;;;5019110;28;20038;-75
2023/10/19 04:44:55;;;;;;;69.47;39.90;;;8.10;99.90;;;;;;4995669;28;20045;-76
2023/10/19 04:47:22;;;;;;;68.82;40.28;;;8.10;99.90;;;;;;4995531;28;20555;-76
2023/10/19 04:49:47;;;;;;;68.22;38.53;;;8.10;99.90;;;;;;5011694;28;20131;-76
2023/10/19 04:52:13;;;;;;;85.65;43.63;;;8.10;99.90;;;;;;4978426;28;20088;-76
2023/10/19 04:54:39;;;;;;;85.72;41.70;;;8.20;99.90;;;;;;4979447;28;20440;-76
2023/10/19 04:57:05;;;;;;;71.50;39.13;;;8.20;99.90;;;;;;4994451;28;20045;-76
2023/10/19 04:59:33;;;;;;;79.38;41.95;;;8.20;99.90;;;;;;5011655;28;21815;-76
2023/10/19 05:02:01;;;;;;;67.03;39.35;;;8.10;99.90;;;;;;5009014;28;20049;-76
2023/10/19 05:04:29;;;;;;;87.55;43.00;;;8.20;99.90;;;;;;4972098;28;20089;-76
2023/10/19 05:06:55;;;;;;;68.82;37.92;;;8.20;99.90;;;;;;5019677;28;20046;-75
2023/10/19 05:09:21;;;;;;;69.82;39.00;;;8.20;99.90;;;;;;5016384;28;20089;-76
2023/10/19 05:11:47;;;;;;;57.92;35.38;;;8.20;99.90;;;;;;5010334;28;20041;-76
2023/10/19 05:14:13;;;;;;;55.78;34.65;;;8.20;99.90;;;;;;4977927;28;20041;-76
2023/10/19 05:16:40;;;;;;;56.35;33.47;;;8.20;99.90;;;;;;4994387;28;20038;-76
2023/10/19 05:19:05;;;;;;;45.78;30.45;;;8.20;99.90;;;;;;5010759;28;20100;-76
2023/10/19 05:21:31;;;;;;;54.85;31.73;;;8.20;99.90;;;;;;4994140;28;20038;-76
2023/10/19 05:24:00;;;;;;;62.35;33.95;;;8.20;99.90;;;;;;4994923;28;20045;-75
2023/10/19 05:26:26;;;;;;;48.55;30.95;;;8.30;99.90;;;;;;4995239;28;20042;-74
2023/10/19 05:28:52;;;;;;;57.63;33.40;;;8.30;99.90;;;;;;5011595;28;20038;-76
2023/10/19 05:31:18;;;;;;;61.00;33.30;;;8.30;99.90;;;;;;4977152;28;20046;-76
2023/10/19 05:33:44;;;;;;;44.30;29.15;;;8.30;99.90;;;;;;4993653;28;20128;-75
2023/10/19 05:36:09;;;;;;;37.40;26.95;;;8.30;99.90;;;;;;4993679;28;20105;-75
2023/10/19 05:38:35;;;;;;;37.42;26.50;;;8.30;99.90;;;;;;4989536;28;20038;-75
2023/10/19 05:41:01;;;;;;;34.70;26.10;;;8.30;99.90;;;;;;4975707;28;20034;-75
2023/10/19 05:43:28;;;;;;;40.97;28.08;;;8.30;99.90;;;;;;4980481;28;20046;-75
2023/10/19 05:45:53;;;;;;;48.63;30.83;;;8.30;99.90;;;;;;4993927;28;20755;-75
2023/10/19 05:48:20;;;;;;;44.42;29.08;;;8.30;99.90;;;;;;5001689;28;20045;-74
2023/10/19 05:50:46;;;;;;;51.60;31.70;;;8.30;99.90;;;;;;5010471;28;20042;-75
2023/10/19 05:53:13;;;;;;;44.08;30.17;;;8.30;99.90;;;;;;5008131;28;20052;-74
2023/10/19 05:55:39;;;;;;;58.75;33.55;;;8.30;99.90;;;;;;4975494;28;20045;-75
2023/10/19 05:58:05;;;;;;;47.90;31.15;;;8.30;99.90;;;;;;5007897;28;20030;-75
2023/10/19 06:00:31;;;;;;;51.58;31.92;;;8.30;99.90;;;;;;5008301;28;20054;-74
2023/10/19 06:02:59;;;;;;;59.25;33.22;;;8.30;99.90;;;;;;4977139;28;20542;-75
2023/10/19 06:05:25;;;;;;;50.25;31.55;;;8.40;99.90;;;;;;5010353;28;20503;-75
2023/10/19 06:07:51;;;;;;;71.10;36.03;;;8.30;99.90;;;;;;5010047;28;20069;-75
2023/10/19 06:10:22;;;;;;;50.75;30.77;;;8.40;99.90;;;;;;4990932;28;20043;-75
2023/10/19 06:12:51;;;;;;;79.07;35.20;;;8.40;99.90;;;;;;5010284;28;20124;-75
2023/10/19 06:15:20;;;;;;;70.18;34.17;;;8.40;99.90;;;;;;4993258;28;20120;-75
2023/10/19 06:17:47;;;;;;;42.78;27.38;;;8.40;99.90;;;;;;5007324;28;20034;-75
2023/10/19 06:20:23;;;;;;;43.10;26.92;;;8.40;99.90;;;;;;4992548;28;20560;-75
2023/10/19 06:22:55;;;;;;;36.03;24.67;;;8.40;99.90;;;;;;5016787;28;20042;-76
2023/10/19 06:25:23;;;;;;;47.15;27.67;;;8.50;99.90;;;;;;4991895;28;20042;-75
2023/10/19 06:27:49;;;;;;;48.80;28.67;;;8.40;99.90;;;;;;5009482;28;20084;-75
2023/10/19 06:30:21;;;;;;;34.20;24.00;;;8.40;99.90;;;;;;4991547;28;20050;-75
2023/10/19 06:32:55;;;;;;;42.95;27.08;;;8.50;99.90;;;;;;5001885;28;20037;-75
2023/10/19 06:35:22;;;;;;;47.42;28.13;;;8.50;99.90;;;;;;5002618;28;20046;-75
2023/10/19 06:37:48;;;;;;;43.00;26.63;;;8.50;99.90;;;;;;5009462;28;20038;-75
2023/10/19 06:40:16;;;;;;;45.45;27.73;;;8.50;99.90;;;;;;4992678;28;20077;-75
2023/10/19 06:42:45;;;;;;;35.13;24.70;;;8.50;99.90;;;;;;4992969;28;20042;-75
2023/10/19 06:45:13;;;;;;;36.17;24.67;;;8.50;99.90;;;;;;5009469;28;20061;-76
2023/10/19 06:47:41;;;;;;;46.22;27.73;;;8.50;99.90;;;;;;4977952;28;20052;-75
2023/10/19 06:50:10;;;;;;;36.60;25.73;;;8.50;99.90;;;;;;5024095;28;20487;-76
2023/10/19 06:52:37;;;;;;;54.05;29.65;;;8.50;99.90;;;;;;5008102;28;20041;-76
2023/10/19 06:55:13;;;;;;;44.38;26.33;;;8.50;99.90;;;;;;5009465;28;20045;-76
2023/10/19 06:57:57;;;;;;;40.38;26.05;;;8.50;99.90;;;;;;5007457;28;20372;-75
2023/10/19 07:00:27;;;;;;;56.83;31.02;;;8.50;99.90;;;;;;5009680;28;20483;-76
2023/10/19 07:02:55;;;;;;;58.33;31.27;;;8.60;99.90;;;;;;5016842;28;20053;-76
2023/10/19 07:05:23;;;;;;;49.22;28.55;;;8.60;99.90;;;;;;5009407;28;20080;-76
2023/10/19 07:07:51;;;;;;;45.08;27.70;;;8.60;99.90;;;;;;5018433;28;20088;-76
2023/10/19 07:10:18;;;;;;;36.92;24.88;;;8.60;99.90;;;;;;5019432;28;20050;-76
2023/10/19 07:12:47;;;;;;;42.38;26.70;;;8.60;99.90;;;;;;5016197;28;20526;-76
2023/10/19 07:15:14;;;;;;;42.83;25.27;;;8.60;99.90;;;;;;4993818;28;20037;-76
2023/10/19 07:17:41;;;;;;;33.15;23.95;;;8.60;99.90;;;;;;4993052;28;20113;-76
2023/10/19 07:22:54;;;;;;;31.33;22.42;;;8.60;99.90;;;;;;5009459;28;20057;-76
2023/10/19 07:25:25;;;;;;;36.45;23.77;;;8.60;99.90;;;;;;4985979;28;20046;-76
2023/10/19 07:27:52;;;;;;;34.25;24.08;;;8.70;99.90;;;;;;4994745;28;20072;-75
2023/10/19 07:30:25;;;;;;;40.90;26.77;;;8.70;99.90;;;;;;5004875;28;20056;-75
2023/10/19 07:32:54;;;;;;;31.17;23.23;;;8.80;99.90;;;;;;4993079;28;20037;-76
2023/10/19 07:35:22;;;;;;;29.35;21.58;;;8.70;99.90;;;;;;4991377;28;20513;-76
2023/10/19 07:37:49;;;;;;;50.22;28.17;;;8.80;99.90;;;;;;5009663;28;20037;-76
2023/10/19 07:40:17;;;;;;;32.50;22.48;;;8.80;99.90;;;;;;5004218;28;20041;-76
2023/10/19 07:42:46;;;;;;;40.47;24.90;;;8.80;99.90;;;;;;5002667;28;20088;-76
2023/10/19 07:45:12;;;;;;;32.53;22.67;;;8.80;99.90;;;;;;4975939;28;20042;-76
2023/10/19 07:47:42;;;;;;;31.92;22.40;;;8.80;99.90;;;;;;4992454;28;20049;-75
2023/10/19 07:50:15;;;;;;;52.75;28.80;;;8.80;99.90;;;;;;4994220;28;20038;-75
2023/10/19 07:52:51;;;;;;;39.38;25.77;;;8.80;99.90;;;;;;5029201;28;20044;-75
2023/10/19 07:55:18;;;;;;;32.05;23.23;;;8.90;99.90;;;;;;4978402;28;20030;-75
2023/10/19 07:57:44;;;;;;;36.00;25.02;;;8.90;99.90;;;;;;5009135;28;20130;-76
2023/10/19 08:00:16;;;;;;;46.58;28.45;;;8.90;99.90;;;;;;4989449;28;20073;-76
2023/10/19 08:02:42;;;;;;;31.38;23.20;;;8.90;99.90;;;;;;4995855;28;20044;-75
2023/10/19 08:05:11;;;;;;;40.25;25.65;;;8.90;99.90;;;;;;4979777;28;20046;-75
2023/10/19 08:07:39;;;;;;;38.95;25.90;;;8.90;99.90;;;;;;5029887;28;20052;-74
2023/10/19 08:10:11;;;;;;;33.97;24.92;;;8.90;99.90;;;;;;5025547;28;20042;-74
2023/10/19 08:12:41;;;;;;;47.25;29.20;;;8.90;99.90;;;;;;5009378;28;20046;-74
2023/10/19 08:15:11;;;;;;;59.92;33.05;;;8.90;99.90;;;;;;5012294;28;20077;-74
2023/10/19 08:17:41;;;;;;;50.70;29.83;;;8.90;99.90;;;;;;5014163;28;20045;-75
2023/10/19 08:20:22;;;;;;;36.75;25.45;;;8.90;99.90;;;;;;4993844;28;20049;-74
2023/10/19 08:22:52;;;;;;;38.87;25.83;;;8.90;99.90;;;;;;4995980;28;20071;-75
2023/10/19 08:25:18;;;;;;;32.17;23.48;;;8.90;99.90;;;;;;4997034;28;20041;-75
2023/10/19 08:27:45;;;;;;;41.00;27.17;;;8.90;99.90;;;;;;5010112;28;20065;-74
2023/10/19 08:30:15;;;;;;;50.00;29.02;;;9.00;99.90;;;;;;4994885;28;20053;-75
2023/10/19 08:32:41;;;;;;;47.47;29.08;;;9.00;99.90;;;;;;5013560;28;20041;-74
2023/10/19 08:35:11;;;;;;;68.10;35.25;;;9.00;99.90;;;;;;5012152;28;20041;-75
2023/10/19 08:37:40;;;;;;;40.53;26.38;;;9.00;99.90;;;;;;4999413;28;20423;-74
2023/10/19 08:40:14;;;;;;;54.58;30.05;;;8.60;99.90;;;;;;4993344;28;20037;-75
2023/10/19 08:42:42;;;;;;;44.45;27.77;;;9.00;99.90;;;;;;4992136;28;20057;-75
2023/10/19 08:45:09;;;;;;;41.63;28.27;;;9.10;99.90;;;;;;4996625;28;20053;-74
2023/10/19 08:47:58;;;;;;;51.40;31.08;;;9.10;99.90;;;;;;5010010;28;20045;-74
2023/10/19 08:50:28;;;;;;;40.10;27.88;;;9.10;99.90;;;;;;5011504;28;20045;-74
2023/10/19 08:52:56;;;;;;;44.35;29.02;;;9.10;99.90;;;;;;4992861;28;20391;-75
2023/10/19 08:55:22;;;;;;;45.38;29.40;;;9.10;99.90;;;;;;4994860;28;20393;-74
2023/10/19 08:57:51;;;;;;;46.60;30.77;;;9.20;99.90;;;;;;4991657;28;20048;-74
2023/10/19 09:00:18;;;;;;;47.63;30.20;;;9.20;99.90;;;;;;5010470;28;20277;-74
2023/10/19 09:02:48;;;;;;;45.42;30.40;;;9.20;99.90;;;;;;5013096;28;20042;-74
2023/10/19 09:05:25;;;;;;;43.17;28.40;;;9.30;99.90;;;;;;5007949;28;20136;-74
2023/10/19 09:07:55;;;;;;;48.60;31.30;;;9.30;99.90;;;;;;5009142;28;20081;-74
2023/10/19 09:10:22;;;;;;;46.38;30.00;;;9.40;99.90;;;;;;4992713;28;20739;-74
2023/10/19 09:13:04;;;;;;;42.90;29.95;;;9.40;99.90;;;;;;5005882;28;20076;-74
2023/10/19 09:15:32;;;;;;;44.13;28.88;;;9.40;99.90;;;;;;5012760;28;20037;-74
2023/10/19 09:18:12;;;;;;;55.33;34.40;;;9.40;99.90;;;;;;4990622;28;20390;-74
2023/10/19 09:20:37;;;;;;;43.78;30.10;;;9.50;99.90;;;;;;4989902;28;20069;-74
2023/10/19 09:23:03;;;;;;;43.00;30.23;;;9.50;99.90;;;;;;4991188;28;20050;-73
2023/10/19 09:25:29;;;;;;;50.28;32.83;;;9.50;99.90;;;;;;4977765;28;20321;-73
2023/10/19 09:27:55;;;;;;;50.03;31.50;;;9.60;99.90;;;;;;4994813;28;20045;-74
2023/10/19 09:30:22;;;;;;;65.85;36.13;;;9.60;99.90;;;;;;4991540;28;20037;-74
2023/10/19 09:32:48;;;;;;;54.05;33.42;;;9.60;99.90;;;;;;5008050;28;20502;-73
2023/10/19 09:35:15;;;;;;;45.90;31.60;;;9.60;99.90;;;;;;4973190;28;20053;-73
2023/10/19 09:37:42;;;;;;;49.28;32.30;;;9.60;99.90;;;;;;5009388;28;20455;-74
2023/10/19 09:40:12;;;;;;;49.42;32.88;;;9.70;99.90;;;;;;4992023;28;21334;-73
2023/10/19 09:42:48;;;;;;;50.78;32.25;;;9.70;99.90;;;;;;4989420;28;20116;-74
2023/10/19 09:45:18;;;;;;;51.70;33.03;;;9.70;99.90;;;;;;5008187;28;20034;-74
2023/10/19 09:47:49;;;;;;;45.70;29.98;;;9.80;99.90;;;;;;5013299;28;20040;-74
2023/10/19 09:50:15;;;;;;;52.92;33.97;;;9.80;99.90;;;;;;5011364;28;20078;-73
2023/10/19 09:52:41;;;;;;;49.67;32.00;;;9.80;99.90;;;;;;5007105;28;20518;-73
2023/10/19 09:55:32;;;;;;;46.50;31.80;;;9.90;99.90;;;;;;5023791;28;20046;-74
2023/10/19 09:58:16;;;;;;;55.55;33.78;;;9.90;99.90;;;;;;4991439;28;20052;-74
2023/10/19 10:00:45;;;;;;;51.95;33.22;;;9.90;99.90;;;;;;5006905;28;20044;-73
2023/10/19 10:03:47;;;;;;;61.17;35.75;;;10.00;99.90;;;;;;5008073;28;20544;-73
2023/10/19 10:06:20;;;;;;;47.17;32.88;;;10.00;99.90;;;;;;5012331;28;20486;-73
2023/10/19 10:08:47;;;;;;;49.50;31.10;;;10.00;99.90;;;;;;5008770;28;20044;-74
2023/10/19 10:11:21;;;;;;;43.47;30.80;;;10.00;99.90;;;;;;4989639;28;20419;-75
2023/10/19 10:13:50;;;;;;;46.60;31.13;;;10.00;99.90;;;;;;5028481;28;20391;-75
2023/10/19 10:16:27;;;;;;;48.00;32.58;;;10.10;99.90;;;;;;5015523;28;20046;-74
2023/10/19 10:19:00;;;;;;;39.50;29.35;;;10.10;99.90;;;;;;5009050;28;20813;-75
2023/10/19 10:21:28;;;;;;;41.22;29.65;;;10.10;99.90;;;;;;4993475;28;20047;-75
2023/10/19 10:23:59;;;;;;;52.53;33.05;;;10.20;99.90;;;;;;5011408;28;20041;-74
2023/10/19 10:26:29;;;;;;;41.90;29.70;;;10.20;99.90;;;;;;4997201;28;20048;-75
2023/10/19 10:29:13;;;;;;;48.95;32.75;;;10.20;99.90;;;;;;4995715;28;20042;-75
2023/10/19 10:31:46;;;;;;;50.10;32.65;;;10.20;99.90;;;;;;4991364;28;20044;-75
2023/10/19 10:34:39;;;;;;;39.80;28.60;;;10.20;99.90;;;;;;5019762;28;20059;-75
2023/10/19 10:37:10;;;;;;;43.53;30.70;;;10.20;99.90;;;;;;4993804;28;20444;-75
2023/10/19 10:39:39;;;;;;;41.47;29.20;;;10.30;99.90;;;;;;5006028;28;20037;-75
2023/10/19 10:42:09;;;;;;;39.95;29.52;;;10.30;99.90;;;;;;5010729;28;20045;-75
2023/10/19 10:44:43;;;;;;;38.17;28.45;;;10.30;99.90;;;;;;4993592;28;20049;-75
2023/10/19 10:47:12;;;;;;;41.25;29.42;;;10.30;99.90;;;;;;5019077;28;20044;-75
2023/10/19 10:49:50;;;;;;;48.20;33.45;;;10.30;99.90;;;;;;5009685;28;20041;-74
2023/10/19 10:52:33;;;;;;;50.58;34.20;;;10.30;99.90;;;;;;5035655;28;20077;-75
2023/10/19 10:55:06;;;;;;;75.78;42.00;;;10.30;99.90;;;;;;4993887;28;20060;-75
2023/10/19 10:57:33;;;;;;;89.15;49.85;;;10.30;99.90;;;;;;5010161;28;20049;-75
2023/10/19 11:00:09;;;;;;;95.68;54.85;;;10.30;99.90;;;;;;5010129;28;20038;-75
2023/10/19 11:02:42;;;;;;;105.35;58.83;;;10.30;99.90;;;;;;5005951;28;20138;-75
2023/10/19 11:05:11;;;;;;;122.22;66.72;;;10.40;99.90;;;;;;5021677;28;20043;-74
2023/10/19 11:07:41;;;;;;;91.30;53.22;;;10.30;99.90;;;;;;5002979;28;20065;-75
2023/10/19 11:10:09;;;;;;;88.28;51.55;;;10.40;99.90;;;;;;5010402;28;20042;-75
2023/10/19 11:12:35;;;;;;;61.78;38.90;;;10.40;99.90;;;;;;4999937;28;20069;-75
2023/10/19 11:15:09;;;;;;;49.33;34.67;;;10.40;99.90;;;;;;5010083;28;20081;-75
2023/10/19 11:17:43;;;;;;;62.03;36.42;;;10.40;99.90;;;;;;4993185;28;20128;-75
2023/10/19 11:20:14;;;;;;;51.97;35.97;;;10.40;99.90;;;;;;5008980;28;20060;-75
2023/10/19 11:22:50;;;;;;;51.63;35.47;;;10.50;99.90;;;;;;4993221;28;20517;-75
2023/10/19 11:25:35;;;;;;;39.83;30.85;;;10.50;99.90;;;;;;4994887;28;20060;-75
2023/10/19 11:28:04;;;;;;;43.92;33.20;;;10.50;99.90;;;;;;5007712;28;20088;-75
2023/10/19 11:30:32;;;;;;;50.63;35.10;;;10.50;99.90;;;;;;4997316;28;20121;-75
2023/10/19 11:32:59;;;;;;;41.78;29.85;;;10.50;99.90;;;;;;5014262;28;20406;-75
2023/10/19 11:35:30;;;;;;;43.83;32.20;;;10.50;99.90;;;;;;5015033;28;20041;-75
2023/10/19 11:37:59;;;;;;;45.42;33.17;;;10.50;99.90;;;;;;5030856;28;20038;-74
2023/10/19 11:40:26;;;;;;;37.20;29.80;;;10.60;99.90;;;;;;5010055;28;20042;-74
2023/10/19 11:42:53;;;;;;;47.95;32.80;;;10.60;99.90;;;;;;4999047;28;20511;-74
2023/10/19 11:45:19;;;;;;;44.22;33.63;;;10.70;99.90;;;;;;5026923;28;20484;-74
2023/10/19 11:47:45;;;;;;;52.25;34.85;;;10.70;99.90;;;;;;5002246;28;20625;-74
2023/10/19 11:50:15;;;;;;;44.22;32.00;;;10.70;99.90;;;;;;4978922;28;20034;-74
2023/10/19 11:52:48;;;;;;;39.78;29.85;;;10.80;99.90;;;;;;5011409;28;20120;-74
2023/10/19 11:55:14;;;;;;;46.05;32.67;;;10.80;99.90;;;;;;5008575;28;20030;-74
2023/10/19 11:57:44;;;;;;;41.97;30.20;;;10.90;99.90;;;;;;5009405;28;20076;-74
2023/10/19 12:00:23;;;;;;;42.30;30.02;;;10.90;99.90;;;;;;5008304;28;20112;-74
2023/10/19 12:02:49;;;;;;;37.58;31.63;;;11.00;99.90;;;;;;5011739;28;20510;-74
2023/10/19 12:05:15;;;;;;;45.88;32.13;;;11.00;99.90;;;;;;4996287;28;20045;-74
2023/10/19 12:07:41;;;;;;;40.95;31.40;;;11.10;99.90;;;;;;4991989;28;20695;-74
2023/10/19 12:10:09;;;;;;;53.42;33.22;;;11.10;99.90;;;;;;4988560;28;20731;-74
2023/10/19 12:12:36;;;;;;;35.90;28.88;;;11.20;99.90;;;;;;5026838;28;20041;-74
2023/10/19 12:15:05;;;;;;;43.63;30.42;;;11.20;99.90;;;;;;5025292;28;20121;-74
2023/10/19 12:17:32;;;;;;;34.72;27.27;;;11.20;99.90;;;;;;4993695;28;20352;-74
2023/10/19 12:19:57;;;;;;;36.42;28.13;;;11.30;99.90;;;;;;4994111;28;20470;-74
2023/10/19 12:22:24;;;;;;;32.85;27.52;;;11.30;99.90;;;;;;4962465;28;20128;-74
2023/10/19 12:24:51;;;;;;;31.08;26.33;;;11.30;99.90;;;;;;5010571;28;20049;-74
2023/10/19 12:27:18;;;;;;;35.35;26.67;;;11.30;99.90;;;;;;4993541;28;20046;-74
2023/10/19 12:29:44;;;;;;;29.73;24.77;;;11.30;99.90;;;;;;4994816;28;20115;-74
2023/10/19 12:32:11;;;;;;;32.10;25.77;;;11.30;99.90;;;;;;4994961;28;20511;-74
2023/10/19 12:34:37;;;;;;;29.45;24.20;;;11.30;99.90;;;;;;5009882;28;20037;-73
2023/10/19 12:37:03;;;;;;;30.20;26.02;;;11.30;99.90;;;;;;4994813;28;20056;-73
2023/10/19 12:39:35;;;;;;;31.67;25.35;;;11.30;99.90;;;;;;5026292;28;20034;-73
2023/10/19 12:42:01;;;;;;;29.52;25.77;;;11.30;99.90;;;;;;5012560;28;20049;-74
2023/10/19 12:44:29;;;;;;;27.77;24.08;;;11.30;99.90;;;;;;4992991;28;20487;-73
2023/10/19 12:46:57;;;;;;;26.67;23.65;;;11.40;99.90;;;;;;5025481;28;20065;-73
2023/10/19 12:49:25;;;;;;;30.40;23.98;;;11.40;99.90;;;;;;5011900;28;20030;-73
2023/10/19 12:51:52;;;;;;;29.38;24.00;;;11.40;99.90;;;;;;5023531;28;20282;-73
2023/10/19 12:54:18;;;;;;;27.02;22.60;;;11.40;99.90;;;;;;4984496;28;20038;-73
2023/10/19 12:56:44;;;;;;;30.67;25.98;;;11.40;99.90;;;;;;5001427;28;20045;-74
2023/10/19 12:59:10;;;;;;;26.40;23.55;;;11.50;99.90;;;;;;4994324;28;20095;-73
2023/10/19 13:01:35;;;;;;;26.05;23.30;;;11.50;99.90;;;;;;4995290;28;20462;-74
2023/10/19 13:04:14;;;;;;;27.10;22.80;;;11.60;99.90;;;;;;5006835;28;20045;-73
2023/10/19 13:06:40;;;;;;;27.52;23.52;;;11.60;99.90;;;;;;5008254;28;20048;-73
2023/10/19 13:09:08;;;;;;;26.80;23.90;;;11.60;99.90;;;;;;4987014;28;20046;-73
2023/10/19 13:11:34;;;;;;;28.42;23.20;;;11.60;99.90;;;;;;4994589;28;20041;-73
2023/10/19 13:14:06;;;;;;;29.02;23.20;;;11.60;99.90;;;;;;4998899;28;20041;-73